Time;durP1;ratioP1;P1;durP2;ratioP2;P2;SDS_P1;SDS_P2;PMS_P1;PMS_P2;Temp;Humidity;BMP_temperature;BMP_pressure;BME280_temperature;BME280_humidity;BME280_pressure;Samples;Min_cycle;Max_cycle;Signal;HPM_P1;HPM_P2
2022/11/27 00:02:20;;;;;;;;;;;16.10;45.30;;;;;;8334660;28;20011;-43
2022/11/27 00:06:21;;;;;;;;;;;16.10;45.30;;;;;;8334630;28;20392;-43
2022/11/27 00:10:21;;;;;;;;;;;16.10;45.20;;;;;;8334759;28;20362;-43
2022/11/27 00:14:22;;;;;;;;;;;16.10;45.20;;;;;;8334499;28;19982;-43
2022/11/27 00:18:22;;;;;;;;;;;16.10;45.20;;;;;;8334441;28;19945;-43
2022/11/27 00:22:25;;;;;;;;;;;16.10;45.40;;;;;;8333715;28;19929;-44
2022/11/27 00:26:26;;;;;;;;;;;16.10;45.20;;;;;;8301471;28;20445;-43
2022/11/27 00:30:26;;;;;;;;;;;16.10;45.10;;;;;;8324561;28;19917;-43
2022/11/27 00:34:27;;;;;;;;;;;16.10;45.70;;;;;;8333661;28;19971;-43
2022/11/27 00:38:27;;;;;;;;;;;16.10;45.70;;;;;;8333686;28;19956;-43
2022/11/27 00:42:28;;;;;;;;;;;16.10;45.10;;;;;;8333191;28;20314;-43
2022/11/27 00:46:29;;;;;;;;;;;16.10;45.10;;;;;;8333235;28;20374;-44
2022/11/27 00:50:31;;;;;;;;;;;16.10;45.10;;;;;;8333400;28;19922;-43
2022/11/27 00:54:32;;;;;;;;;;;16.10;45.10;;;;;;8332628;28;19956;-43
2022/11/27 00:58:33;;;;;;;;;;;16.10;45.10;;;;;;8333006;28;19919;-43
2022/11/27 01:02:33;;;;;;;;;;;16.10;45.10;;;;;;8333004;28;20309;-43
2022/11/27 01:06:34;;;;;;;;;;;16.10;45.10;;;;;;8332047;28;19918;-43
2022/11/27 01:10:34;;;;;;;;;;;16.10;45.10;;;;;;8332733;28;19924;-44
2022/11/27 01:14:35;;;;;;;;;;;16.10;45.60;;;;;;8332515;28;20379;-43
2022/11/27 01:18:36;;;;;;;;;;;16.10;45.10;;;;;;8331831;28;19924;-44
2022/11/27 01:22:37;;;;;;;;;;;16.10;45.10;;;;;;8332686;28;19956;-43
2022/11/27 01:26:37;;;;;;;;;;;16.10;45.10;;;;;;8332027;28;20333;-45
2022/11/27 01:30:38;;;;;;;;;;;16.10;45.00;;;;;;8331551;28;20314;-44
2022/11/27 01:34:38;;;;;;;;;;;16.10;45.60;;;;;;8331803;28;19917;-44
2022/11/27 01:38:39;;;;;;;;;;;16.10;45.10;;;;;;8331745;28;19928;-43
2022/11/27 01:42:40;;;;;;;;;;;16.10;45.00;;;;;;8331190;28;20020;-44
2022/11/27 01:46:45;;;;;;;;;;;16.10;45.00;;;;;;8331578;28;19956;-44
2022/11/27 01:50:45;;;;;;;;;;;16.10;45.00;;;;;;8331366;28;19917;-43
2022/11/27 01:54:57;;;;;;;;;;;16.10;45.10;;;;;;8330799;28;19932;-44
2022/11/27 01:58:58;;;;;;;;;;;16.10;45.00;;;;;;8331261;28;20379;-44
2022/11/27 02:02:58;;;;;;;;;;;16.10;45.10;;;;;;8331126;28;19987;-43
2022/11/27 02:06:59;;;;;;;;;;;16.10;45.00;;;;;;8330270;28;19921;-44
2022/11/27 02:10:59;;;;;;;;;;;16.10;45.00;;;;;;8329621;28;19917;-44
2022/11/27 02:15:08;;;;;;;;;;;16.10;45.00;;;;;;8330856;28;19917;-42
2022/11/27 02:19:12;;;;;;;;;;;16.00;45.00;;;;;;8331232;28;19925;-43
2022/11/27 02:23:28;;;;;;;;;;;16.00;45.00;;;;;;8330448;28;19980;-43
2022/11/27 02:27:28;;;;;;;;;;;16.10;45.10;;;;;;8330268;28;19953;-43
2022/11/27 02:31:44;;;;;;;;;;;16.10;45.00;;;;;;8330253;28;20285;-44
2022/11/27 02:36:00;;;;;;;;;;;16.10;45.00;;;;;;8330250;28;19924;-44
2022/11/27 02:40:03;;;;;;;;;;;16.10;45.00;;;;;;8329767;28;19933;-44
2022/11/27 02:44:05;;;;;;;;;;;16.00;45.00;;;;;;8330166;28;19927;-46
2022/11/27 02:48:07;;;;;;;;;;;16.10;45.00;;;;;;8330370;28;19913;-44
2022/11/27 02:52:08;;;;;;;;;;;16.10;45.00;;;;;;8329516;28;19921;-44
2022/11/27 02:56:11;;;;;;;;;;;16.10;45.00;;;;;;8336542;28;20367;-43
2022/11/27 03:00:12;;;;;;;;;;;16.10;45.00;;;;;;8336581;28;20047;-42
2022/11/27 03:04:15;;;;;;;;;;;16.10;45.00;;;;;;8336128;28;19925;-44
2022/11/27 03:08:28;;;;;;;;;;;16.00;45.00;;;;;;8336377;28;19950;-42
2022/11/27 03:12:29;;;;;;;;;;;16.10;45.00;;;;;;8335889;28;19921;-43
2022/11/27 03:16:42;;;;;;;;;;;16.00;45.00;;;;;;8336049;28;19924;-42
2022/11/27 03:20:43;;;;;;;;;;;16.00;45.00;;;;;;8336028;28;20019;-42
2022/11/27 03:24:44;;;;;;;;;;;16.00;45.10;;;;;;8335608;28;19957;-43
2022/11/27 03:28:44;;;;;;;;;;;16.00;45.00;;;;;;8336164;28;19936;-42
2022/11/27 03:32:45;;;;;;;;;;;16.10;45.10;;;;;;8335879;28;19992;-44
2022/11/27 03:36:45;;;;;;;;;;;16.10;45.10;;;;;;8335129;28;20326;-44
2022/11/27 03:41:01;;;;;;;;;;;16.00;45.60;;;;;;8335683;28;20016;-44
2022/11/27 03:45:16;;;;;;;;;;;16.00;45.00;;;;;;8335450;28;20285;-44
2022/11/27 03:49:35;;;;;;;;;;;16.00;45.00;;;;;;8334775;28;20348;-44
2022/11/27 03:53:47;;;;;;;;;;;16.00;45.00;;;;;;8335402;28;19920;-44
2022/11/27 03:58:06;;;;;;;;;;;16.00;45.00;;;;;;8334675;28;19964;-44
2022/11/27 04:02:11;;;;;;;;;;;16.00;45.00;;;;;;8334754;28;19932;-44
2022/11/27 04:06:11;;;;;;;;;;;16.00;45.10;;;;;;8334665;28;20532;-44
2022/11/27 04:10:12;;;;;;;;;;;16.00;45.00;;;;;;8333978;28;19932;-44
2022/11/27 04:14:14;;;;;;;;;;;16.00;45.00;;;;;;8334010;28;20298;-44
2022/11/27 04:18:14;;;;;;;;;;;16.00;45.00;;;;;;8334566;28;19923;-44
2022/11/27 04:22:15;;;;;;;;;;;16.00;45.00;;;;;;8333623;28;19925;-44
2022/11/27 04:26:15;;;;;;;;;;;16.00;45.10;;;;;;8334060;28;19925;-44
2022/11/27 04:30:16;;;;;;;;;;;16.00;45.00;;;;;;8333821;28;20004;-44
2022/11/27 04:34:16;;;;;;;;;;;16.00;45.00;;;;;;8333315;28;19917;-44
2022/11/27 04:38:18;;;;;;;;;;;16.10;45.10;;;;;;8333992;28;19972;-44
2022/11/27 04:42:18;;;;;;;;;;;16.10;45.10;;;;;;8332163;28;19925;-44
2022/11/27 04:46:19;;;;;;;;;;;16.00;45.10;;;;;;8332889;28;19922;-44
2022/11/27 04:50:19;;;;;;;;;;;16.00;45.00;;;;;;8333378;28;19917;-44
2022/11/27 04:54:19;;;;;;;;;;;16.10;45.10;;;;;;8333092;28;20012;-45
2022/11/27 04:58:20;;;;;;;;;;;16.10;45.10;;;;;;8332941;28;19924;-44
2022/11/27 05:02:20;;;;;;;;;;;16.10;45.10;;;;;;8333039;28;19933;-45
2022/11/27 05:06:21;;;;;;;;;;;16.10;45.10;;;;;;8327555;28;19913;-45
2022/11/27 05:10:22;;;;;;;;;;;16.00;45.10;;;;;;8308017;28;19930;-45
2022/11/27 05:14:27;;;;;;;;;;;16.00;45.10;;;;;;8332685;28;19967;-45
2022/11/27 05:18:28;;;;;;;;;;;16.00;45.10;;;;;;8331903;28;19923;-45
2022/11/27 05:22:29;;;;;;;;;;;16.00;45.10;;;;;;8332512;28;19929;-46
2022/11/27 05:26:29;;;;;;;;;;;16.00;45.10;;;;;;8332331;28;19917;-44
2022/11/27 05:30:30;;;;;;;;;;;16.00;45.20;;;;;;8331618;28;19913;-45
2022/11/27 05:34:30;;;;;;;;;;;16.00;45.20;;;;;;8331855;28;19921;-44
2022/11/27 05:38:31;;;;;;;;;;;16.00;45.20;;;;;;8332168;28;20309;-45
2022/11/27 05:42:31;;;;;;;;;;;16.00;45.20;;;;;;8331126;28;19921;-45
2022/11/27 05:46:32;;;;;;;;;;;16.00;45.20;;;;;;8331569;28;19918;-44
2022/11/27 05:50:32;;;;;;;;;;;15.90;45.20;;;;;;8331363;28;20389;-45
2022/11/27 05:54:33;;;;;;;;;;;15.90;45.20;;;;;;8331122;28;20321;-44
2022/11/27 05:58:33;;;;;;;;;;;15.90;45.20;;;;;;8331180;28;19917;-45
2022/11/27 06:02:33;;;;;;;;;;;15.90;45.20;;;;;;8330949;28;20370;-45
2022/11/27 06:06:34;;;;;;;;;;;15.90;45.20;;;;;;8330478;28;19960;-45
2022/11/27 06:10:36;;;;;;;;;;;15.90;45.20;;;;;;8330888;28;19953;-45
2022/11/27 06:14:37;;;;;;;;;;;15.90;45.20;;;;;;8330989;28;19920;-45
2022/11/27 06:18:37;;;;;;;;;;;15.90;45.20;;;;;;8330685;28;19942;-45
2022/11/27 06:22:38;;;;;;;;;;;15.90;45.20;;;;;;8330387;28;20394;-48
2022/11/27 06:26:38;;;;;;;;;;;15.90;45.20;;;;;;8330192;28;19921;-45
2022/11/27 06:30:39;;;;;;;;;;;15.90;45.20;;;;;;8329250;28;20344;-45
2022/11/27 06:34:39;;;;;;;;;;;15.90;45.20;;;;;;8330739;28;20317;-44
2022/11/27 06:38:40;;;;;;;;;;;15.90;45.20;;;;;;8330421;28;19917;-45
2022/11/27 06:42:40;;;;;;;;;;;15.90;45.20;;;;;;8329574;28;19971;-45
2022/11/27 06:46:40;;;;;;;;;;;15.90;45.20;;;;;;8330055;28;20470;-45
2022/11/27 06:50:41;;;;;;;;;;;15.90;45.20;;;;;;8330013;28;19971;-45
2022/11/27 06:54:41;;;;;;;;;;;15.90;45.20;;;;;;8329817;28;19913;-45
2022/11/27 06:58:42;;;;;;;;;;;15.90;45.20;;;;;;8329947;28;19923;-45
2022/11/27 07:02:42;;;;;;;;;;;15.90;45.20;;;;;;8329906;28;19932;-45
2022/11/27 07:06:43;;;;;;;;;;;15.90;45.20;;;;;;8327981;28;19924;-45
2022/11/27 07:10:43;;;;;;;;;;;15.90;45.30;;;;;;8329749;28;19924;-45
2022/11/27 07:14:43;;;;;;;;;;;15.90;45.30;;;;;;8329931;28;20294;-46
2022/11/27 07:18:45;;;;;;;;;;;15.90;45.30;;;;;;8329130;28;20385;-45
2022/11/27 07:22:46;;;;;;;;;;;15.90;45.30;;;;;;8329358;28;19932;-45
2022/11/27 07:26:46;;;;;;;;;;;15.90;45.30;;;;;;8329627;28;20325;-45
2022/11/27 07:30:57;;;;;;;;;;;15.90;45.30;;;;;;8328909;28;19917;-48
2022/11/27 07:34:57;;;;;;;;;;;15.80;45.30;;;;;;8329838;28;20286;-45
2022/11/27 07:38:58;;;;;;;;;;;15.90;45.30;;;;;;8330530;28;19923;-46
2022/11/27 07:42:58;;;;;;;;;;;15.90;45.30;;;;;;8334850;28;19925;-46
2022/11/27 07:46:58;;;;;;;;;;;15.90;45.20;;;;;;8335174;28;19928;-43
2022/11/27 07:50:59;;;;;;;;;;;15.90;45.30;;;;;;8335105;28;19925;-45
2022/11/27 07:54:59;;;;;;;;;;;15.90;45.30;;;;;;8334691;28;19914;-44
2022/11/27 07:59:00;;;;;;;;;;;15.90;45.30;;;;;;8335102;28;20000;-45
2022/11/27 08:03:01;;;;;;;;;;;15.90;45.30;;;;;;8335171;28;19925;-45
2022/11/27 08:07:01;;;;;;;;;;;15.90;45.30;;;;;;8334172;28;19928;-45
2022/11/27 08:11:01;;;;;;;;;;;15.90;45.30;;;;;;8333717;28;19917;-44
2022/11/27 08:15:04;;;;;;;;;;;15.80;45.20;;;;;;8334582;28;19944;-46
2022/11/27 08:19:04;;;;;;;;;;;15.90;45.30;;;;;;8333958;28;19969;-44
2022/11/27 08:23:05;;;;;;;;;;;15.90;45.20;;;;;;8334082;28;19929;-45
2022/11/27 08:27:05;;;;;;;;;;;15.90;45.20;;;;;;8334105;28;19956;-45
2022/11/27 08:31:07;;;;;;;;;;;15.90;45.30;;;;;;8333441;28;19924;-48
2022/11/27 08:35:08;;;;;;;;;;;15.90;45.30;;;;;;8332882;28;19913;-45
2022/11/27 08:39:09;;;;;;;;;;;15.90;45.30;;;;;;8333810;28;19917;-46
2022/11/27 08:43:09;;;;;;;;;;;15.90;45.30;;;;;;8333043;28;19960;-45
2022/11/27 08:47:10;;;;;;;;;;;15.90;45.30;;;;;;8333748;28;19928;-45
2022/11/27 08:51:12;;;;;;;;;;;15.90;45.20;;;;;;8332588;28;20386;-45
2022/11/27 08:55:12;;;;;;;;;;;15.90;45.20;;;;;;8333151;28;19963;-45
2022/11/27 08:59:13;;;;;;;;;;;15.90;45.20;;;;;;8333274;28;19917;-45
2022/11/27 09:03:13;;;;;;;;;;;15.90;45.20;;;;;;8332739;28;19932;-46
2022/11/27 09:07:14;;;;;;;;;;;15.90;45.20;;;;;;8331031;28;20019;-46
2022/11/27 09:11:16;;;;;;;;;;;15.90;45.30;;;;;;8332927;28;19972;-45
2022/11/27 09:15:17;;;;;;;;;;;15.90;45.30;;;;;;8332772;28;19914;-46
2022/11/27 09:19:17;;;;;;;;;;;15.90;45.20;;;;;;8331925;28;19917;-44
2022/11/27 09:23:17;;;;;;;;;;;15.90;45.30;;;;;;8332559;28;19932;-44
2022/11/27 09:27:18;;;;;;;;;;;15.90;45.30;;;;;;8332169;28;19983;-43
2022/11/27 09:31:19;;;;;;;;;;;15.90;45.30;;;;;;8331638;28;19998;-43
2022/11/27 09:35:20;;;;;;;;;;;15.90;45.40;;;;;;8332385;28;19971;-44
2022/11/27 09:39:21;;;;;;;;;;;15.90;45.30;;;;;;8331683;28;19917;-45
2022/11/27 09:43:26;;;;;;;;;;;15.90;45.30;;;;;;8331099;28;19964;-45
2022/11/27 09:47:34;;;;;;;;;;;15.90;45.30;;;;;;8331763;28;19917;-45
2022/11/27 09:51:37;;;;;;;;;;;15.90;45.30;;;;;;8330956;28;19917;-44
2022/11/27 09:55:41;;;;;;;;;;;15.90;45.30;;;;;;8331572;28;19913;-45
2022/11/27 09:59:43;;;;;;;;;;;15.90;45.30;;;;;;8331218;28;19924;-44
2022/11/27 10:03:44;;;;;;;;;;;15.90;45.30;;;;;;8330552;28;19971;-44
2022/11/27 10:07:57;;;;;;;;;;;15.90;45.30;;;;;;8330715;28;19928;-44
2022/11/27 10:12:00;;;;;;;;;;;15.90;45.20;;;;;;8330776;28;19953;-44
2022/11/27 10:16:19;;;;;;;;;;;15.90;45.20;;;;;;8330346;28;19913;-44
2022/11/27 10:20:43;;;;;;;;;;;15.90;45.20;;;;;;8330860;28;19928;-44
2022/11/27 10:25:02;;;;;;;;;;;15.90;45.30;;;;;;8330151;28;19921;-44
2022/11/27 10:29:18;;;;;;;;;;;15.90;45.20;;;;;;8330487;28;19971;-44
2022/11/27 10:33:24;;;;;;;;;;;15.90;45.20;;;;;;8330439;28;20003;-44
2022/11/27 10:37:27;;;;;;;;;;;15.90;45.20;;;;;;8329835;28;20436;-44
2022/11/27 10:41:46;;;;;;;;;;;16.00;45.20;;;;;;8330552;28;20067;-44
2022/11/27 10:45:47;;;;;;;;;;;16.00;45.20;;;;;;8329933;28;19979;-44
2022/11/27 10:49:47;;;;;;;;;;;16.00;45.20;;;;;;8330351;28;19917;-44
2022/11/27 10:53:52;;;;;;;;;;;16.00;45.30;;;;;;8330112;28;20321;-44
2022/11/27 10:57:58;;;;;;;;;;;16.00;45.20;;;;;;8329497;28;19917;-44
2022/11/27 11:02:00;;;;;;;;;;;15.90;45.20;;;;;;8329717;28;20302;-44
2022/11/27 11:06:04;;;;;;;;;;;16.00;45.30;;;;;;8329960;28;19913;-45
2022/11/27 11:10:17;;;;;;;;;;;16.00;45.20;;;;;;8328466;28;20306;-45
2022/11/27 11:14:19;;;;;;;;;;;15.90;45.20;;;;;;8305951;28;20322;-44
2022/11/27 11:18:21;;;;;;;;;;;16.00;46.00;;;;;;8309617;28;19921;-45
2022/11/27 11:22:22;;;;;;;;;;;16.00;45.60;;;;;;8322877;28;20447;-44
2022/11/27 11:26:26;;;;;;;;;;;16.00;44.60;;;;;;8334917;28;19913;-44
2022/11/27 11:30:28;;;;;;;;;;;15.90;45.00;;;;;;8335903;28;19918;-44
2022/11/27 11:34:29;;;;;;;;;;;15.90;45.00;;;;;;8335284;28;19917;-45
2022/11/27 11:38:31;;;;;;;;;;;15.90;45.00;;;;;;8335580;28;19918;-45
2022/11/27 11:42:35;;;;;;;;;;;15.90;44.90;;;;;;8334889;28;20437;-44
2022/11/27 11:46:38;;;;;;;;;;;16.00;45.00;;;;;;8335491;28;20337;-44
2022/11/27 11:50:41;;;;;;;;;;;16.00;45.00;;;;;;8335188;28;19917;-44
2022/11/27 11:55:00;;;;;;;;;;;16.00;44.90;;;;;;8334546;28;19913;-44
2022/11/27 11:59:04;;;;;;;;;;;16.00;45.00;;;;;;8334965;28;19924;-44
2022/11/27 12:03:13;;;;;;;;;;;16.00;45.00;;;;;;8335320;28;19926;-45
2022/11/27 12:07:16;;;;;;;;;;;16.00;45.00;;;;;;8333919;28;19921;-45
2022/11/27 12:11:28;;;;;;;;;;;16.00;45.00;;;;;;8334665;28;20000;-45
2022/11/27 12:15:29;;;;;;;;;;;16.00;45.00;;;;;;8334226;28;20371;-43
2022/11/27 12:19:29;;;;;;;;;;;16.00;45.00;;;;;;8334666;28;19921;-44
2022/11/27 12:23:41;;;;;;;;;;;16.00;44.90;;;;;;8334318;28;20310;-44
2022/11/27 12:27:51;;;;;;;;;;;16.10;45.00;;;;;;8332558;28;19956;-44
2022/11/27 12:32:15;;;;;;;;;;;16.00;44.90;;;;;;8334435;28;20385;-44
2022/11/27 12:36:29;;;;;;;;;;;16.00;45.00;;;;;;8334131;28;20495;-44
2022/11/27 12:40:52;;;;;;;;;;;16.10;45.10;;;;;;8333320;28;19971;-43
2022/11/27 12:44:59;;;;;;;;;;;16.00;45.00;;;;;;8333816;28;19983;-44
2022/11/27 12:49:12;;;;;;;;;;;16.10;45.10;;;;;;8333002;28;19924;-44
2022/11/27 12:53:27;;;;;;;;;;;16.10;45.10;;;;;;8333583;28;19917;-44
2022/11/27 12:57:38;;;;;;;;;;;16.10;45.00;;;;;;8332879;28;19918;-43
2022/11/27 13:01:41;;;;;;;;;;;16.10;45.00;;;;;;8333114;28;19921;-44
2022/11/27 13:05:46;;;;;;;;;;;16.10;45.10;;;;;;8332860;28;20007;-44
2022/11/27 13:10:08;;;;;;;;;;;16.10;45.00;;;;;;8332125;28;19933;-44
2022/11/27 13:14:15;;;;;;;;;;;16.00;45.10;;;;;;8332703;28;20329;-45
2022/11/27 13:18:34;;;;;;;;;;;16.00;45.10;;;;;;8332478;28;19924;-43
2022/11/27 13:22:35;;;;;;;;;;;16.10;45.10;;;;;;8332325;28;19921;-45
2022/11/27 13:26:40;;;;;;;;;;;16.10;45.10;;;;;;8332437;28;19921;-43
2022/11/27 13:30:41;;;;;;;;;;;16.10;45.10;;;;;;8331633;28;19920;-44
2022/11/27 13:34:44;;;;;;;;;;;16.00;45.00;;;;;;8332265;28;19952;-44
2022/11/27 13:38:45;;;;;;;;;;;16.10;45.00;;;;;;8331633;28;19955;-43
2022/11/27 13:42:47;;;;;;;;;;;16.10;45.00;;;;;;8331230;28;19925;-44
2022/11/27 13:46:52;;;;;;;;;;;16.10;45.00;;;;;;8331928;28;19924;-44
2022/11/27 13:50:53;;;;;;;;;;;16.10;45.00;;;;;;8331770;28;19924;-43
2022/11/27 13:54:58;;;;;;;;;;;16.10;45.00;;;;;;8331016;28;19917;-44
2022/11/27 13:58:58;;;;;;;;;;;16.10;45.00;;;;;;8331264;28;20440;-44
2022/11/27 14:02:59;;;;;;;;;;;16.10;45.00;;;;;;8325302;28;19925;-44
2022/11/27 14:07:05;;;;;;;;;;;16.10;45.00;;;;;;8307210;28;19921;-44
2022/11/27 14:11:07;;;;;;;;;;;16.20;45.90;;;;;;8319802;28;19963;-45
2022/11/27 14:15:08;;;;;;;;;;;16.20;46.20;;;;;;8307495;28;19961;-44
2022/11/27 14:19:23;;;;;;;;;;;16.30;46.40;;;;;;8318090;28;20008;-45
2022/11/27 14:23:27;;;;;;;;;;;16.50;46.50;;;;;;8330505;28;19929;-45
2022/11/27 14:27:34;;;;;;;;;;;16.60;46.30;;;;;;8330300;28;19913;-46
2022/11/27 14:31:34;;;;;;;;;;;16.70;46.30;;;;;;8330461;28;19917;-44
2022/11/27 14:35:35;;;;;;;;;;;16.80;46.40;;;;;;8312113;28;20383;-44
2022/11/27 14:39:36;;;;;;;;;;;16.90;46.30;;;;;;8320798;28;19920;-45
2022/11/27 14:43:36;;;;;;;;;;;17.10;46.50;;;;;;8329015;28;19925;-42
2022/11/27 14:47:41;;;;;;;;;;;17.00;45.40;;;;;;8329961;28;19914;-42
2022/11/27 14:51:42;;;;;;;;;;;17.00;45.70;;;;;;8301667;28;20377;-43
2022/11/27 14:55:42;;;;;;;;;;;17.10;45.50;;;;;;8318133;28;19917;-44
2022/11/27 14:59:43;;;;;;;;;;;17.20;45.90;;;;;;8330217;28;20385;-44
2022/11/27 15:03:53;;;;;;;;;;;17.30;46.10;;;;;;8329592;28;19979;-46
2022/11/27 15:07:55;;;;;;;;;;;17.40;46.00;;;;;;8329642;28;20326;-45
2022/11/27 15:11:59;;;;;;;;;;;17.50;46.10;;;;;;8329994;28;20271;-46
2022/11/27 15:15:59;;;;;;;;;;;17.50;46.30;;;;;;8329142;28;19917;-45
2022/11/27 15:20:02;;;;;;;;;;;17.60;45.60;;;;;;8327061;28;19925;-44
2022/11/27 15:24:03;;;;;;;;;;;17.70;45.80;;;;;;8306516;28;19926;-45
2022/11/27 15:28:22;;;;;;;;;;;17.70;45.30;;;;;;8300376;28;20397;-46
2022/11/27 15:32:23;;;;;;;;;;;17.60;44.80;;;;;;8324886;28;20000;-46
2022/11/27 15:36:24;;;;;;;;;;;17.50;45.00;;;;;;8326986;28;20004;-47
2022/11/27 15:40:28;;;;;;;;;;;17.50;45.10;;;;;;8328051;28;19917;-46
2022/11/27 15:44:29;;;;;;;;;;;17.50;45.10;;;;;;8329271;28;19932;-46
2022/11/27 15:48:30;;;;;;;;;;;17.50;45.00;;;;;;8329175;28;20372;-46
2022/11/27 15:52:30;;;;;;;;;;;17.50;45.00;;;;;;8329165;28;19921;-46
2022/11/27 15:56:31;;;;;;;;;;;17.50;45.00;;;;;;8329180;28;19924;-45
2022/11/27 16:00:31;;;;;;;;;;;17.50;45.00;;;;;;8330303;28;20287;-46
2022/11/27 16:04:32;;;;;;;;;;;17.50;45.00;;;;;;8335589;28;19944;-46
2022/11/27 16:08:32;;;;;;;;;;;17.50;45.00;;;;;;8335001;28;19921;-46
2022/11/27 16:12:33;;;;;;;;;;;17.40;45.00;;;;;;8334311;28;19917;-47
2022/11/27 16:16:34;;;;;;;;;;;17.40;45.00;;;;;;8334647;28;20331;-46
2022/11/27 16:20:34;;;;;;;;;;;17.30;44.90;;;;;;8334321;28;19917;-46
2022/11/27 16:24:35;;;;;;;;;;;17.30;45.00;;;;;;8333973;28;19921;-47
2022/11/27 16:28:35;;;;;;;;;;;17.30;45.10;;;;;;8334551;28;20394;-46
2022/11/27 16:32:37;;;;;;;;;;;17.30;45.00;;;;;;8333879;28;19924;-46
2022/11/27 16:36:39;;;;;;;;;;;17.30;44.90;;;;;;8333540;28;19940;-45
2022/11/27 16:40:40;;;;;;;;;;;17.20;44.90;;;;;;8333702;28;19917;-46
2022/11/27 16:44:42;;;;;;;;;;;17.20;45.00;;;;;;8333535;28;19928;-46
2022/11/27 16:48:43;;;;;;;;;;;17.20;45.00;;;;;;8333565;28;19913;-45
2022/11/27 16:52:44;;;;;;;;;;;17.20;45.00;;;;;;8333666;28;19917;-45
2022/11/27 16:56:44;;;;;;;;;;;17.10;45.00;;;;;;8333444;28;19970;-46
2022/11/27 17:00:45;;;;;;;;;;;17.10;45.00;;;;;;8332752;28;19963;-45
2022/11/27 17:04:45;;;;;;;;;;;17.10;45.10;;;;;;8333216;28;20367;-46
2022/11/27 17:08:46;;;;;;;;;;;17.10;45.10;;;;;;8331915;28;20023;-45
2022/11/27 17:12:46;;;;;;;;;;;17.00;45.00;;;;;;8331727;28;20920;-45
2022/11/27 17:16:47;;;;;;;;;;;17.00;45.10;;;;;;8332988;28;19924;-46
2022/11/27 17:20:47;;;;;;;;;;;17.00;45.00;;;;;;8332565;28;19924;-45
2022/11/27 17:24:48;;;;;;;;;;;17.00;45.10;;;;;;8330504;28;19921;-46
2022/11/27 17:28:49;;;;;;;;;;;17.00;45.10;;;;;;8332516;28;20002;-46
2022/11/27 17:32:50;;;;;;;;;;;17.00;45.20;;;;;;8332169;28;20323;-48
2022/11/27 17:36:55;;;;;;;;;;;17.00;45.20;;;;;;8331670;28;19936;-46
2022/11/27 17:41:04;;;;;;;;;;;17.00;45.20;;;;;;8334858;28;19921;-46
2022/11/27 17:45:05;;;;;;;;;;;16.90;45.20;;;;;;8331995;28;19924;-46
2022/11/27 17:49:06;;;;;;;;;;;16.90;45.10;;;;;;8331355;28;20370;-46
2022/11/27 17:53:06;;;;;;;;;;;16.90;45.20;;;;;;8331466;28;19925;-46
2022/11/27 17:57:07;;;;;;;;;;;16.90;45.20;;;;;;8331436;28;19921;-46
2022/11/27 18:01:12;;;;;;;;;;;16.90;45.20;;;;;;8330839;28;19921;-46
2022/11/27 18:05:13;;;;;;;;;;;16.90;45.30;;;;;;8331227;28;19925;-45
2022/11/27 18:09:13;;;;;;;;;;;16.90;45.30;;;;;;8331198;28;20377;-45
2022/11/27 18:13:13;;;;;;;;;;;17.00;45.40;;;;;;8330456;28;19924;-45
2022/11/27 18:17:16;;;;;;;;;;;17.00;45.20;;;;;;8330792;28;19962;-45
2022/11/27 18:21:17;;;;;;;;;;;17.00;45.10;;;;;;8330749;28;19925;-47
2022/11/27 18:25:17;;;;;;;;;;;17.10;45.20;;;;;;8330134;28;19924;-46
2022/11/27 18:29:18;;;;;;;;;;;17.10;45.10;;;;;;8330717;28;19913;-46
2022/11/27 18:33:18;;;;;;;;;;;17.10;45.00;;;;;;8330602;28;20405;-44
2022/11/27 18:37:19;;;;;;;;;;;17.20;45.00;;;;;;8329833;28;19918;-48
2022/11/27 18:41:22;;;;;;;;;;;17.20;45.00;;;;;;8336835;28;19932;-45
2022/11/27 18:45:23;;;;;;;;;;;17.20;45.00;;;;;;8330158;28;19984;-45
2022/11/27 18:49:23;;;;;;;;;;;17.20;44.90;;;;;;8329932;28;20020;-45
2022/11/27 18:53:24;;;;;;;;;;;17.20;44.90;;;;;;8330358;28;19928;-45
2022/11/27 18:57:24;;;;;;;;;;;17.20;45.00;;;;;;8330039;28;19945;-44
2022/11/27 19:01:26;;;;;;;;;;;17.10;44.90;;;;;;8329488;28;19929;-44
2022/11/27 19:05:27;;;;;;;;;;;17.10;44.90;;;;;;8329843;28;19918;-45
2022/11/27 19:09:27;;;;;;;;;;;17.10;44.90;;;;;;8329962;28;20008;-43
2022/11/27 19:13:28;;;;;;;;;;;17.10;45.00;;;;;;8329688;28;19918;-45
2022/11/27 19:17:29;;;;;;;;;;;17.10;45.00;;;;;;8329652;28;19924;-45
2022/11/27 19:21:31;;;;;;;;;;;17.10;45.10;;;;;;8329051;28;20397;-44
2022/11/27 19:25:37;;;;;;;;;;;17.00;45.10;;;;;;8329870;28;19956;-45
2022/11/27 19:29:38;;;;;;;;;;;17.00;45.10;;;;;;8329889;28;20333;-45
2022/11/27 19:33:38;;;;;;;;;;;17.00;45.10;;;;;;8329090;28;19917;-45
2022/11/27 19:37:39;;;;;;;;;;;17.00;45.20;;;;;;8334761;28;19924;-45
2022/11/27 19:41:40;;;;;;;;;;;17.00;45.20;;;;;;8335515;28;20385;-44
2022/11/27 19:45:40;;;;;;;;;;;17.00;45.20;;;;;;8335064;28;19928;-45
2022/11/27 19:49:41;;;;;;;;;;;17.00;45.20;;;;;;8335592;28;19917;-45
2022/11/27 19:53:41;;;;;;;;;;;16.90;45.10;;;;;;8335573;28;20339;-45
2022/11/27 19:57:41;;;;;;;;;;;16.90;45.20;;;;;;8334749;28;19917;-47
2022/11/27 20:01:42;;;;;;;;;;;16.90;45.10;;;;;;8334945;28;20493;-48
2022/11/27 20:05:42;;;;;;;;;;;16.90;45.10;;;;;;8334736;28;19924;-46
2022/11/27 20:09:43;;;;;;;;;;;17.00;45.20;;;;;;8333496;28;19928;-46
2022/11/27 20:13:43;;;;;;;;;;;17.00;45.30;;;;;;8334882;28;19943;-46
2022/11/27 20:17:44;;;;;;;;;;;17.00;45.20;;;;;;8334402;28;20012;-46
2022/11/27 20:21:44;;;;;;;;;;;17.00;45.10;;;;;;8333755;28;19925;-46
2022/11/27 20:25:48;;;;;;;;;;;17.10;45.10;;;;;;8334513;28;20305;-46
2022/11/27 20:29:48;;;;;;;;;;;17.10;45.10;;;;;;8334536;28;20321;-46
2022/11/27 20:33:50;;;;;;;;;;;17.10;45.00;;;;;;8333658;28;19924;-46
2022/11/27 20:37:50;;;;;;;;;;;17.10;44.90;;;;;;8334211;28;19972;-46
2022/11/27 20:41:52;;;;;;;;;;;17.10;45.00;;;;;;8333732;28;19929;-46
2022/11/27 20:45:52;;;;;;;;;;;17.10;44.90;;;;;;8332636;28;21414;-46
2022/11/27 20:49:53;;;;;;;;;;;17.10;45.00;;;;;;8333514;28;20292;-46
2022/11/27 20:53:55;;;;;;;;;;;17.20;45.00;;;;;;8333615;28;19917;-46
2022/11/27 20:57:55;;;;;;;;;;;17.10;44.90;;;;;;8332942;28;19917;-46
2022/11/27 21:01:56;;;;;;;;;;;17.10;44.90;;;;;;8333085;28;19925;-47
2022/11/27 21:05:56;;;;;;;;;;;17.10;44.90;;;;;;8333174;28;20003;-45
2022/11/27 21:09:57;;;;;;;;;;;17.10;44.90;;;;;;8332578;28;19928;-46
2022/11/27 21:13:59;;;;;;;;;;;17.10;45.00;;;;;;8333166;28;19918;-45
2022/11/27 21:17:59;;;;;;;;;;;17.10;45.00;;;;;;8332617;28;19913;-45
2022/11/27 21:22:00;;;;;;;;;;;17.10;45.00;;;;;;8332052;28;19947;-45
2022/11/27 21:26:00;;;;;;;;;;;17.10;45.00;;;;;;8332614;28;19917;-45
2022/11/27 21:30:01;;;;;;;;;;;17.10;45.10;;;;;;8332639;28;19951;-45
2022/11/27 21:34:02;;;;;;;;;;;17.00;45.10;;;;;;8331754;28;19940;-46
2022/11/27 21:38:03;;;;;;;;;;;17.00;45.10;;;;;;8332069;28;19924;-46
2022/11/27 21:42:03;;;;;;;;;;;17.00;45.10;;;;;;8331814;28;20352;-45
2022/11/27 21:46:04;;;;;;;;;;;17.00;45.10;;;;;;8331664;28;19992;-45
2022/11/27 21:50:05;;;;;;;;;;;17.00;45.10;;;;;;8332327;28;20028;-45
2022/11/27 21:54:07;;;;;;;;;;;17.00;45.20;;;;;;8331575;28;19917;-47
2022/11/27 21:58:07;;;;;;;;;;;16.90;45.20;;;;;;8330704;28;20067;-46
2022/11/27 22:02:09;;;;;;;;;;;16.90;45.20;;;;;;8331263;28;19929;-48
2022/11/27 22:06:11;;;;;;;;;;;16.90;45.20;;;;;;8331307;28;19926;-46
2022/11/27 22:10:12;;;;;;;;;;;16.90;45.20;;;;;;8330859;28;19932;-46
2022/11/27 22:14:13;;;;;;;;;;;16.90;45.20;;;;;;8331260;28;19921;-47
2022/11/27 22:18:14;;;;;;;;;;;16.90;45.20;;;;;;8331188;28;19959;-46
2022/11/27 22:22:14;;;;;;;;;;;16.90;45.10;;;;;;8330141;28;19925;-47
2022/11/27 22:26:16;;;;;;;;;;;16.90;45.10;;;;;;8330663;28;20379;-44
2022/11/27 22:30:16;;;;;;;;;;;16.90;45.10;;;;;;8330789;28;20000;-45
2022/11/27 22:34:17;;;;;;;;;;;16.90;45.20;;;;;;8330218;28;19925;-44
2022/11/27 22:38:17;;;;;;;;;;;16.90;45.10;;;;;;8330550;28;19956;-45
2022/11/27 22:42:18;;;;;;;;;;;16.90;45.10;;;;;;8330364;28;19921;-44
2022/11/27 22:46:24;;;;;;;;;;;16.90;45.10;;;;;;8330140;28;19917;-44
2022/11/27 22:50:24;;;;;;;;;;;16.90;45.10;;;;;;8330612;28;19921;-47
2022/11/27 22:54:25;;;;;;;;;;;16.90;45.10;;;;;;8330247;28;19924;-44
2022/11/27 22:58:26;;;;;;;;;;;16.90;45.10;;;;;;8329715;28;19917;-45
2022/11/27 23:02:27;;;;;;;;;;;16.90;45.10;;;;;;8328901;28;19975;-45
2022/11/27 23:06:27;;;;;;;;;;;16.90;45.10;;;;;;8330212;28;19921;-44
2022/11/27 23:10:27;;;;;;;;;;;16.90;45.10;;;;;;8330454;28;19998;-45
2022/11/27 23:14:28;;;;;;;;;;;16.90;45.10;;;;;;8336533;28;19924;-45
2022/11/27 23:18:28;;;;;;;;;;;16.90;45.10;;;;;;8336053;28;20306;-45
2022/11/27 23:22:29;;;;;;;;;;;16.90;45.10;;;;;;8336118;28;19925;-45
2022/11/27 23:26:29;;;;;;;;;;;16.90;45.10;;;;;;8336803;28;19917;-45
2022/11/27 23:30:30;;;;;;;;;;;16.90;45.10;;;;;;8336138;28;19921;-43